Clearwater, Florida
Current Conditions -  °F | °C
As of 8:15 PM on Sunday 21 Dec 2014 (Local Time) from KCLW Reporting Station
Light Rain Light Rain  
Wind Chill: 64°   Ceiling: 6500
Heat Index: 64°   Visibility: 10mi
Dew Point: 64°   Wind: 3mph
Humidity: 100%   Direction: 110°ESE
Pressure: 30.01"   Gusts: NA
Location:  27.97°N, 82.8°W
Report Text: KCLW 220115Z AUTO 11003KT 10SM -RA OVC065 18/18 A3001 RMK AO2
Loading
Personal Weather Stations






























Interactive Weather Map New forecast layout! Learn more

10-Day Weather Forecast

Advertisements
Track Severe Weather on mobile